sensor_id;sensor_type;location;lat;lon;timestamp;P1;durP1;ratioP1;P2;durP2;ratioP2
74421;SDS011;62856;51.446;8.360;2022-10-12T00:00:32;3.20;;;0.90;;
74421;SDS011;62856;51.446;8.360;2022-10-12T00:02:57;7.55;;;2.00;;
74421;SDS011;62856;51.446;8.360;2022-10-12T00:05:22;4.00;;;1.10;;
74421;SDS011;62856;51.446;8.360;2022-10-12T00:07:48;6.47;;;1.37;;
74421;SDS011;62856;51.446;8.360;2022-10-12T00:10:13;8.93;;;1.70;;
74421;SDS011;62856;51.446;8.360;2022-10-12T00:12:38;8.52;;;1.63;;
74421;SDS011;62856;51.446;8.360;2022-10-12T00:15:04;6.88;;;1.30;;
74421;SDS011;62856;51.446;8.360;2022-10-12T00:17:29;4.40;;;1.08;;
74421;SDS011;62856;51.446;8.360;2022-10-12T00:19:55;4.63;;;1.15;;
74421;SDS011;62856;51.446;8.360;2022-10-12T00:22:20;3.97;;;0.93;;
74421;SDS011;62856;51.446;8.360;2022-10-12T00:24:45;5.55;;;0.90;;
74421;SDS011;62856;51.446;8.360;2022-10-12T00:27:11;4.40;;;1.27;;
74421;SDS011;62856;51.446;8.360;2022-10-12T00:29:36;4.88;;;0.95;;
74421;SDS011;62856;51.446;8.360;2022-10-12T00:32:01;9.80;;;1.20;;
74421;SDS011;62856;51.446;8.360;2022-10-12T00:34:27;3.97;;;1.38;;
74421;SDS011;62856;51.446;8.360;2022-10-12T00:36:52;3.53;;;1.07;;
74421;SDS011;62856;51.446;8.360;2022-10-12T00:39:19;5.53;;;1.83;;
74421;SDS011;62856;51.446;8.360;2022-10-12T00:41:44;5.70;;;1.00;;
74421;SDS011;62856;51.446;8.360;2022-10-12T00:47:22;5.30;;;1.02;;
74421;SDS011;62856;51.446;8.360;2022-10-12T00:50:04;3.25;;;1.30;;
74421;SDS011;62856;51.446;8.360;2022-10-12T00:52:42;2.85;;;0.75;;
74421;SDS011;62856;51.446;8.360;2022-10-12T00:55:14;2.42;;;0.70;;
74421;SDS011;62856;51.446;8.360;2022-10-12T00:57:43;8.60;;;1.60;;
74421;SDS011;62856;51.446;8.360;2022-10-12T01:00:09;8.82;;;0.93;;
74421;SDS011;62856;51.446;8.360;2022-10-12T01:02:35;7.65;;;1.88;;
74421;SDS011;62856;51.446;8.360;2022-10-12T01:05:04;5.00;;;1.13;;
74421;SDS011;62856;51.446;8.360;2022-10-12T01:07:29;3.33;;;0.90;;
74421;SDS011;62856;51.446;8.360;2022-10-12T01:09:55;4.80;;;1.98;;
74421;SDS011;62856;51.446;8.360;2022-10-12T01:12:20;6.80;;;1.25;;
74421;SDS011;62856;51.446;8.360;2022-10-12T01:14:47;9.90;;;1.33;;
74421;SDS011;62856;51.446;8.360;2022-10-12T01:22:59;11.10;;;1.50;;
74421;SDS011;62856;51.446;8.360;2022-10-12T01:28:54;4.22;;;1.05;;
74421;SDS011;62856;51.446;8.360;2022-10-12T01:33:44;4.18;;;0.88;;
74421;SDS011;62856;51.446;8.360;2022-10-12T01:36:18;2.55;;;0.90;;
74421;SDS011;62856;51.446;8.360;2022-10-12T01:39:06;3.95;;;1.35;;
74421;SDS011;62856;51.446;8.360;2022-10-12T01:41:41;7.57;;;1.73;;
74421;SDS011;62856;51.446;8.360;2022-10-12T01:44:11;6.18;;;1.30;;
74421;SDS011;62856;51.446;8.360;2022-10-12T01:46:41;2.60;;;0.93;;
74421;SDS011;62856;51.446;8.360;2022-10-12T01:49:07;6.53;;;1.05;;
74421;SDS011;62856;51.446;8.360;2022-10-12T01:51:35;4.47;;;1.30;;
74421;SDS011;62856;51.446;8.360;2022-10-12T01:59:30;6.47;;;1.15;;
74421;SDS011;62856;51.446;8.360;2022-10-12T02:05:32;5.70;;;1.15;;
74421;SDS011;62856;51.446;8.360;2022-10-12T02:11:20;5.78;;;1.20;;
74421;SDS011;62856;51.446;8.360;2022-10-12T02:14:08;5.00;;;1.30;;
74421;SDS011;62856;51.446;8.360;2022-10-12T02:16:40;7.22;;;1.58;;
74421;SDS011;62856;51.446;8.360;2022-10-12T02:19:10;6.10;;;1.80;;
74421;SDS011;62856;51.446;8.360;2022-10-12T02:21:41;8.43;;;1.20;;
74421;SDS011;62856;51.446;8.360;2022-10-12T02:24:09;4.72;;;1.13;;
74421;SDS011;62856;51.446;8.360;2022-10-12T02:26:36;3.45;;;0.88;;
74421;SDS011;62856;51.446;8.360;2022-10-12T02:29:05;4.25;;;1.08;;
74421;SDS011;62856;51.446;8.360;2022-10-12T02:31:38;2.90;;;1.08;;
74421;SDS011;62856;51.446;8.360;2022-10-12T02:35:12;8.85;;;1.23;;
74421;SDS011;62856;51.446;8.360;2022-10-12T02:37:19;2.67;;;0.77;;
74421;SDS011;62856;51.446;8.360;2022-10-12T02:39:54;3.83;;;0.88;;
74421;SDS011;62856;51.446;8.360;2022-10-12T02:42:35;2.95;;;0.93;;
74421;SDS011;62856;51.446;8.360;2022-10-12T02:45:04;3.08;;;0.70;;
74421;SDS011;62856;51.446;8.360;2022-10-12T02:47:32;3.35;;;0.60;;
74421;SDS011;62856;51.446;8.360;2022-10-12T02:49:59;2.85;;;0.77;;
74421;SDS011;62856;51.446;8.360;2022-10-12T02:52:26;7.03;;;1.20;;
74421;SDS011;62856;51.446;8.360;2022-10-12T02:54:53;5.25;;;0.93;;
74421;SDS011;62856;51.446;8.360;2022-10-12T02:57:18;4.78;;;1.02;;
74421;SDS011;62856;51.446;8.360;2022-10-12T02:59:44;3.25;;;0.88;;
74421;SDS011;62856;51.446;8.360;2022-10-12T03:02:10;1.58;;;0.88;;
74421;SDS011;62856;51.446;8.360;2022-10-12T03:04:35;5.68;;;1.20;;
74421;SDS011;62856;51.446;8.360;2022-10-12T03:07:01;4.78;;;0.88;;
74421;SDS011;62856;51.446;8.360;2022-10-12T03:09:27;5.43;;;0.90;;
74421;SDS011;62856;51.446;8.360;2022-10-12T03:11:52;1.60;;;0.52;;
74421;SDS011;62856;51.446;8.360;2022-10-12T03:14:17;4.80;;;0.90;;
74421;SDS011;62856;51.446;8.360;2022-10-12T03:16:44;3.92;;;1.15;;
74421;SDS011;62856;51.446;8.360;2022-10-12T03:19:12;2.90;;;0.75;;
74421;SDS011;62856;51.446;8.360;2022-10-12T03:21:37;6.05;;;1.17;;
74421;SDS011;62856;51.446;8.360;2022-10-12T03:24:03;6.50;;;1.00;;
74421;SDS011;62856;51.446;8.360;2022-10-12T03:26:28;5.97;;;1.30;;
74421;SDS011;62856;51.446;8.360;2022-10-12T03:28:53;4.73;;;0.70;;
74421;SDS011;62856;51.446;8.360;2022-10-12T03:31:18;12.57;;;1.30;;
74421;SDS011;62856;51.446;8.360;2022-10-12T03:33:44;3.70;;;0.90;;
74421;SDS011;62856;51.446;8.360;2022-10-12T03:36:09;4.28;;;0.95;;
74421;SDS011;62856;51.446;8.360;2022-10-12T03:38:34;6.07;;;1.00;;
74421;SDS011;62856;51.446;8.360;2022-10-12T03:40:59;8.03;;;0.73;;
74421;SDS011;62856;51.446;8.360;2022-10-12T03:43:25;4.07;;;1.13;;
74421;SDS011;62856;51.446;8.360;2022-10-12T03:45:50;3.40;;;1.02;;
74421;SDS011;62856;51.446;8.360;2022-10-12T03:48:16;5.85;;;0.90;;
74421;SDS011;62856;51.446;8.360;2022-10-12T03:50:46;8.30;;;2.17;;
74421;SDS011;62856;51.446;8.360;2022-10-12T03:53:12;5.45;;;1.35;;
74421;SDS011;62856;51.446;8.360;2022-10-12T03:55:38;3.70;;;1.10;;
74421;SDS011;62856;51.446;8.360;2022-10-12T03:58:03;7.70;;;1.83;;
74421;SDS011;62856;51.446;8.360;2022-10-12T04:00:28;2.73;;;1.30;;
74421;SDS011;62856;51.446;8.360;2022-10-12T04:02:53;4.10;;;0.80;;
74421;SDS011;62856;51.446;8.360;2022-10-12T04:05:19;5.45;;;1.63;;
74421;SDS011;62856;51.446;8.360;2022-10-12T04:07:44;2.60;;;0.97;;
74421;SDS011;62856;51.446;8.360;2022-10-12T04:10:10;4.82;;;1.25;;
74421;SDS011;62856;51.446;8.360;2022-10-12T04:12:35;4.63;;;1.20;;
74421;SDS011;62856;51.446;8.360;2022-10-12T04:15:00;5.30;;;1.30;;
74421;SDS011;62856;51.446;8.360;2022-10-12T04:17:26;6.93;;;1.37;;
74421;SDS011;62856;51.446;8.360;2022-10-12T04:19:51;13.82;;;1.42;;
74421;SDS011;62856;51.446;8.360;2022-10-12T04:22:16;4.17;;;1.30;;
74421;SDS011;62856;51.446;8.360;2022-10-12T04:24:41;8.87;;;1.67;;
74421;SDS011;62856;51.446;8.360;2022-10-12T04:27:07;2.88;;;0.90;;
74421;SDS011;62856;51.446;8.360;2022-10-12T04:29:32;4.72;;;0.95;;
74421;SDS011;62856;51.446;8.360;2022-10-12T04:31:57;8.00;;;1.10;;
74421;SDS011;62856;51.446;8.360;2022-10-12T04:34:23;8.00;;;1.63;;
74421;SDS011;62856;51.446;8.360;2022-10-12T04:36:48;4.15;;;0.95;;
74421;SDS011;62856;51.446;8.360;2022-10-12T04:39:14;6.75;;;1.15;;
74421;SDS011;62856;51.446;8.360;2022-10-12T04:41:39;4.60;;;1.33;;
74421;SDS011;62856;51.446;8.360;2022-10-12T04:44:05;9.00;;;1.05;;
74421;SDS011;62856;51.446;8.360;2022-10-12T04:46:30;9.25;;;1.80;;
74421;SDS011;62856;51.446;8.360;2022-10-12T04:48:56;3.60;;;0.77;;
74421;SDS011;62856;51.446;8.360;2022-10-12T04:51:21;6.40;;;1.45;;
74421;SDS011;62856;51.446;8.360;2022-10-12T04:53:47;3.13;;;0.97;;
74421;SDS011;62856;51.446;8.360;2022-10-12T04:56:12;8.95;;;3.03;;
74421;SDS011;62856;51.446;8.360;2022-10-12T04:58:37;5.18;;;1.13;;
74421;SDS011;62856;51.446;8.360;2022-10-12T05:01:03;10.93;;;1.42;;
74421;SDS011;62856;51.446;8.360;2022-10-12T05:03:28;6.18;;;1.77;;
74421;SDS011;62856;51.446;8.360;2022-10-12T05:05:53;3.65;;;0.95;;
74421;SDS011;62856;51.446;8.360;2022-10-12T05:08:19;7.45;;;1.38;;
74421;SDS011;62856;51.446;8.360;2022-10-12T05:10:44;6.82;;;1.98;;
74421;SDS011;62856;51.446;8.360;2022-10-12T05:13:11;7.35;;;2.40;;
74421;SDS011;62856;51.446;8.360;2022-10-12T05:15:36;8.82;;;1.67;;
74421;SDS011;62856;51.446;8.360;2022-10-12T05:18:01;6.50;;;1.45;;
74421;SDS011;62856;51.446;8.360;2022-10-12T05:20:27;12.02;;;1.92;;
74421;SDS011;62856;51.446;8.360;2022-10-12T05:22:52;3.40;;;1.13;;
74421;SDS011;62856;51.446;8.360;2022-10-12T05:25:17;4.03;;;1.20;;
74421;SDS011;62856;51.446;8.360;2022-10-12T05:27:45;3.47;;;0.77;;
74421;SDS011;62856;51.446;8.360;2022-10-12T05:30:11;3.40;;;0.87;;
74421;SDS011;62856;51.446;8.360;2022-10-12T05:32:36;4.88;;;1.08;;
74421;SDS011;62856;51.446;8.360;2022-10-12T05:35:01;6.80;;;1.40;;
74421;SDS011;62856;51.446;8.360;2022-10-12T05:37:27;3.28;;;1.10;;
74421;SDS011;62856;51.446;8.360;2022-10-12T05:39:52;6.00;;;1.38;;
74421;SDS011;62856;51.446;8.360;2022-10-12T05:42:18;5.93;;;1.10;;
74421;SDS011;62856;51.446;8.360;2022-10-12T05:44:44;2.80;;;0.98;;
74421;SDS011;62856;51.446;8.360;2022-10-12T05:47:09;12.85;;;1.88;;
74421;SDS011;62856;51.446;8.360;2022-10-12T05:49:34;7.00;;;1.55;;
74421;SDS011;62856;51.446;8.360;2022-10-12T05:52:00;12.63;;;1.60;;
74421;SDS011;62856;51.446;8.360;2022-10-12T05:54:25;6.40;;;1.20;;
74421;SDS011;62856;51.446;8.360;2022-10-12T05:56:50;8.45;;;1.80;;
74421;SDS011;62856;51.446;8.360;2022-10-12T05:59:16;6.18;;;1.35;;
74421;SDS011;62856;51.446;8.360;2022-10-12T06:01:41;10.75;;;1.85;;
74421;SDS011;62856;51.446;8.360;2022-10-12T06:04:07;9.38;;;1.60;;
74421;SDS011;62856;51.446;8.360;2022-10-12T06:06:32;5.15;;;1.30;;
74421;SDS011;62856;51.446;8.360;2022-10-12T06:08:58;5.23;;;1.07;;
74421;SDS011;62856;51.446;8.360;2022-10-12T06:11:23;6.63;;;1.13;;
74421;SDS011;62856;51.446;8.360;2022-10-12T06:13:48;3.28;;;0.90;;
74421;SDS011;62856;51.446;8.360;2022-10-12T06:16:14;4.70;;;1.20;;
74421;SDS011;62856;51.446;8.360;2022-10-12T06:18:39;6.10;;;1.20;;
74421;SDS011;62856;51.446;8.360;2022-10-12T06:21:04;5.22;;;1.60;;
74421;SDS011;62856;51.446;8.360;2022-10-12T06:23:30;12.10;;;1.42;;
74421;SDS011;62856;51.446;8.360;2022-10-12T06:25:55;5.63;;;1.90;;
74421;SDS011;62856;51.446;8.360;2022-10-12T06:28:21;3.10;;;1.02;;
74421;SDS011;62856;51.446;8.360;2022-10-12T06:30:51;4.78;;;1.10;;
74421;SDS011;62856;51.446;8.360;2022-10-12T06:33:18;4.28;;;1.15;;
74421;SDS011;62856;51.446;8.360;2022-10-12T06:35:43;7.53;;;1.90;;
74421;SDS011;62856;51.446;8.360;2022-10-12T06:38:09;7.95;;;1.88;;
74421;SDS011;62856;51.446;8.360;2022-10-12T06:40:34;6.90;;;1.53;;
74421;SDS011;62856;51.446;8.360;2022-10-12T06:42:59;6.57;;;2.00;;
74421;SDS011;62856;51.446;8.360;2022-10-12T06:45:27;3.95;;;1.02;;
74421;SDS011;62856;51.446;8.360;2022-10-12T06:47:53;6.40;;;1.20;;
74421;SDS011;62856;51.446;8.360;2022-10-12T06:50:18;5.53;;;1.40;;
74421;SDS011;62856;51.446;8.360;2022-10-12T06:52:45;6.60;;;0.80;;
74421;SDS011;62856;51.446;8.360;2022-10-12T06:55:10;9.10;;;1.58;;
74421;SDS011;62856;51.446;8.360;2022-10-12T06:57:35;4.18;;;1.10;;
74421;SDS011;62856;51.446;8.360;2022-10-12T07:00:01;5.03;;;1.10;;
74421;SDS011;62856;51.446;8.360;2022-10-12T07:02:26;9.55;;;1.60;;
74421;SDS011;62856;51.446;8.360;2022-10-12T07:04:52;21.90;;;2.65;;
74421;SDS011;62856;51.446;8.360;2022-10-12T07:07:17;3.53;;;0.95;;
74421;SDS011;62856;51.446;8.360;2022-10-12T07:09:43;11.90;;;2.15;;
74421;SDS011;62856;51.446;8.360;2022-10-12T07:12:08;4.95;;;1.58;;
74421;SDS011;62856;51.446;8.360;2022-10-12T07:14:33;29.83;;;2.70;;
74421;SDS011;62856;51.446;8.360;2022-10-12T07:16:59;17.83;;;6.78;;
74421;SDS011;62856;51.446;8.360;2022-10-12T07:19:24;35.58;;;13.90;;
74421;SDS011;62856;51.446;8.360;2022-10-12T07:21:50;25.33;;;10.50;;
74421;SDS011;62856;51.446;8.360;2022-10-12T07:24:16;18.52;;;7.50;;
74421;SDS011;62856;51.446;8.360;2022-10-12T07:26:41;16.47;;;4.80;;
74421;SDS011;62856;51.446;8.360;2022-10-12T07:29:06;13.23;;;4.75;;
74421;SDS011;62856;51.446;8.360;2022-10-12T07:31:32;15.52;;;6.18;;
74421;SDS011;62856;51.446;8.360;2022-10-12T07:33:57;17.60;;;5.17;;
74421;SDS011;62856;51.446;8.360;2022-10-12T07:36:22;20.00;;;6.07;;
74421;SDS011;62856;51.446;8.360;2022-10-12T07:38:48;22.93;;;7.10;;
74421;SDS011;62856;51.446;8.360;2022-10-12T07:41:13;18.05;;;7.80;;
74421;SDS011;62856;51.446;8.360;2022-10-12T07:43:39;25.13;;;6.53;;
74421;SDS011;62856;51.446;8.360;2022-10-12T07:46:05;14.15;;;5.50;;
74421;SDS011;62856;51.446;8.360;2022-10-12T07:48:31;21.55;;;7.00;;
74421;SDS011;62856;51.446;8.360;2022-10-12T07:51:03;29.92;;;9.13;;
74421;SDS011;62856;51.446;8.360;2022-10-12T07:53:32;23.98;;;8.43;;
74421;SDS011;62856;51.446;8.360;2022-10-12T07:56:01;17.95;;;7.15;;
74421;SDS011;62856;51.446;8.360;2022-10-12T07:58:29;35.80;;;6.55;;
74421;SDS011;62856;51.446;8.360;2022-10-12T08:00:54;36.95;;;6.43;;
74421;SDS011;62856;51.446;8.360;2022-10-12T08:03:21;18.17;;;5.97;;
74421;SDS011;62856;51.446;8.360;2022-10-12T08:05:46;18.85;;;4.15;;
74421;SDS011;62856;51.446;8.360;2022-10-12T08:08:11;12.17;;;2.57;;
74421;SDS011;62856;51.446;8.360;2022-10-12T08:10:39;12.50;;;2.45;;
74421;SDS011;62856;51.446;8.360;2022-10-12T08:13:04;12.30;;;2.50;;
74421;SDS011;62856;51.446;8.360;2022-10-12T08:15:29;14.13;;;2.33;;
74421;SDS011;62856;51.446;8.360;2022-10-12T08:17:55;9.75;;;2.35;;
74421;SDS011;62856;51.446;8.360;2022-10-12T08:20:20;6.35;;;1.23;;
74421;SDS011;62856;51.446;8.360;2022-10-12T08:22:45;8.30;;;1.77;;
74421;SDS011;62856;51.446;8.360;2022-10-12T08:25:11;18.43;;;2.07;;
74421;SDS011;62856;51.446;8.360;2022-10-12T08:27:36;8.30;;;1.50;;
74421;SDS011;62856;51.446;8.360;2022-10-12T08:30:03;7.82;;;1.40;;
74421;SDS011;62856;51.446;8.360;2022-10-12T08:32:31;7.80;;;1.27;;
74421;SDS011;62856;51.446;8.360;2022-10-12T08:34:56;4.60;;;1.10;;
74421;SDS011;62856;51.446;8.360;2022-10-12T08:37:22;5.97;;;0.80;;
74421;SDS011;62856;51.446;8.360;2022-10-12T08:39:47;5.68;;;1.05;;
74421;SDS011;62856;51.446;8.360;2022-10-12T08:45:03;6.57;;;1.17;;
74421;SDS011;62856;51.446;8.360;2022-10-12T08:47:33;7.35;;;1.13;;
74421;SDS011;62856;51.446;8.360;2022-10-12T08:50:02;4.93;;;1.17;;
74421;SDS011;62856;51.446;8.360;2022-10-12T08:55:25;6.65;;;1.05;;
74421;SDS011;62856;51.446;8.360;2022-10-12T08:57:58;2.75;;;0.85;;
74421;SDS011;62856;51.446;8.360;2022-10-12T09:00:24;7.03;;;0.90;;
74421;SDS011;62856;51.446;8.360;2022-10-12T09:03:03;6.07;;;0.90;;
74421;SDS011;62856;51.446;8.360;2022-10-12T09:05:52;7.38;;;1.00;;
74421;SDS011;62856;51.446;8.360;2022-10-12T09:08:37;8.98;;;1.15;;
74421;SDS011;62856;51.446;8.360;2022-10-12T09:14:09;3.47;;;1.00;;
74421;SDS011;62856;51.446;8.360;2022-10-12T09:16:42;5.60;;;1.10;;
74421;SDS011;62856;51.446;8.360;2022-10-12T09:19:15;4.72;;;0.90;;
74421;SDS011;62856;51.446;8.360;2022-10-12T09:21:43;6.82;;;1.10;;
74421;SDS011;62856;51.446;8.360;2022-10-12T09:24:15;3.70;;;0.80;;
74421;SDS011;62856;51.446;8.360;2022-10-12T09:26:43;5.97;;;0.90;;
74421;SDS011;62856;51.446;8.360;2022-10-12T09:29:33;5.25;;;1.10;;
74421;SDS011;62856;51.446;8.360;2022-10-12T09:34:48;5.57;;;1.05;;
74421;SDS011;62856;51.446;8.360;2022-10-12T09:37:17;3.72;;;1.08;;
74421;SDS011;62856;51.446;8.360;2022-10-12T09:39:45;4.43;;;1.00;;
74421;SDS011;62856;51.446;8.360;2022-10-12T09:42:11;3.30;;;0.93;;
74421;SDS011;62856;51.446;8.360;2022-10-12T09:44:37;4.00;;;0.90;;
74421;SDS011;62856;51.446;8.360;2022-10-12T09:47:39;1.98;;;0.82;;
74421;SDS011;62856;51.446;8.360;2022-10-12T09:50:01;4.22;;;0.93;;
74421;SDS011;62856;51.446;8.360;2022-10-12T09:57:43;4.38;;;0.95;;
74421;SDS011;62856;51.446;8.360;2022-10-12T10:02:54;3.53;;;1.08;;
74421;SDS011;62856;51.446;8.360;2022-10-12T10:07:50;5.75;;;1.20;;
74421;SDS011;62856;51.446;8.360;2022-10-12T10:10:23;4.15;;;1.00;;
74421;SDS011;62856;51.446;8.360;2022-10-12T10:12:55;5.43;;;1.17;;
74421;SDS011;62856;51.446;8.360;2022-10-12T10:15:28;6.30;;;1.08;;
74421;SDS011;62856;51.446;8.360;2022-10-12T10:17:56;4.45;;;1.08;;
74421;SDS011;62856;51.446;8.360;2022-10-12T10:20:31;7.80;;;1.20;;
74421;SDS011;62856;51.446;8.360;2022-10-12T10:23:05;5.10;;;1.30;;
74421;SDS011;62856;51.446;8.360;2022-10-12T10:25:30;5.03;;;1.20;;
74421;SDS011;62856;51.446;8.360;2022-10-12T10:28:13;4.80;;;1.10;;
74421;SDS011;62856;51.446;8.360;2022-10-12T10:30:59;5.95;;;1.13;;
74421;SDS011;62856;51.446;8.360;2022-10-12T10:33:28;3.55;;;1.02;;
74421;SDS011;62856;51.446;8.360;2022-10-12T10:38:44;5.60;;;1.35;;
74421;SDS011;62856;51.446;8.360;2022-10-12T10:41:17;6.40;;;1.30;;
74421;SDS011;62856;51.446;8.360;2022-10-12T10:43:44;4.68;;;1.13;;
74421;SDS011;62856;51.446;8.360;2022-10-12T10:46:12;5.97;;;1.33;;
74421;SDS011;62856;51.446;8.360;2022-10-12T10:48:50;6.30;;;1.52;;
74421;SDS011;62856;51.446;8.360;2022-10-12T10:51:20;6.15;;;1.40;;
74421;SDS011;62856;51.446;8.360;2022-10-12T10:53:47;6.53;;;1.67;;
74421;SDS011;62856;51.446;8.360;2022-10-12T10:56:22;7.28;;;1.55;;
74421;SDS011;62856;51.446;8.360;2022-10-12T10:58:51;4.88;;;1.35;;
74421;SDS011;62856;51.446;8.360;2022-10-12T11:01:24;7.13;;;1.45;;
74421;SDS011;62856;51.446;8.360;2022-10-12T11:04:10;5.53;;;1.52;;
74421;SDS011;62856;51.446;8.360;2022-10-12T11:06:41;8.80;;;1.70;;
74421;SDS011;62856;51.446;8.360;2022-10-12T11:09:16;6.32;;;1.45;;
74421;SDS011;62856;51.446;8.360;2022-10-12T11:11:43;5.72;;;1.42;;
74421;SDS011;62856;51.446;8.360;2022-10-12T11:14:16;5.03;;;1.20;;
74421;SDS011;62856;51.446;8.360;2022-10-12T11:16:56;5.55;;;1.50;;
74421;SDS011;62856;51.446;8.360;2022-10-12T11:21:51;3.67;;;1.43;;
74421;SDS011;62856;51.446;8.360;2022-10-12T11:24:22;5.93;;;1.55;;
74421;SDS011;62856;51.446;8.360;2022-10-12T11:29:32;8.48;;;1.60;;
74421;SDS011;62856;51.446;8.360;2022-10-12T11:32:01;4.43;;;1.48;;
74421;SDS011;62856;51.446;8.360;2022-10-12T11:37:08;5.20;;;1.63;;
74421;SDS011;62856;51.446;8.360;2022-10-12T11:39:43;4.90;;;1.35;;
74421;SDS011;62856;51.446;8.360;2022-10-12T11:42:12;5.45;;;1.60;;
74421;SDS011;62856;51.446;8.360;2022-10-12T11:44:42;6.50;;;1.35;;
74421;SDS011;62856;51.446;8.360;2022-10-12T11:47:15;6.72;;;1.58;;
74421;SDS011;62856;51.446;8.360;2022-10-12T11:49:57;6.97;;;1.50;;
74421;SDS011;62856;51.446;8.360;2022-10-12T11:52:36;9.18;;;1.60;;
74421;SDS011;62856;51.446;8.360;2022-10-12T12:03:18;5.50;;;1.50;;
74421;SDS011;62856;51.446;8.360;2022-10-12T12:11:19;6.30;;;1.70;;
74421;SDS011;62856;51.446;8.360;2022-10-12T12:13:47;5.40;;;1.30;;
74421;SDS011;62856;51.446;8.360;2022-10-12T12:21:31;7.13;;;1.30;;
74421;SDS011;62856;51.446;8.360;2022-10-12T12:24:34;5.70;;;1.42;;
74421;SDS011;62856;51.446;8.360;2022-10-12T12:27:01;4.18;;;1.15;;
74421;SDS011;62856;51.446;8.360;2022-10-12T12:29:26;5.00;;;1.30;;
74421;SDS011;62856;51.446;8.360;2022-10-12T12:31:55;6.50;;;1.40;;
74421;SDS011;62856;51.446;8.360;2022-10-12T12:34:23;6.68;;;1.70;;
74421;SDS011;62856;51.446;8.360;2022-10-12T12:36:49;5.07;;;1.58;;
74421;SDS011;62856;51.446;8.360;2022-10-12T12:39:23;5.40;;;1.60;;
74421;SDS011;62856;51.446;8.360;2022-10-12T12:41:57;6.18;;;1.60;;
74421;SDS011;62856;51.446;8.360;2022-10-12T12:44:46;5.78;;;1.42;;
74421;SDS011;62856;51.446;8.360;2022-10-12T12:52:01;6.90;;;1.70;;
74421;SDS011;62856;51.446;8.360;2022-10-12T12:54:35;7.88;;;1.88;;
74421;SDS011;62856;51.446;8.360;2022-10-12T13:05:42;5.72;;;1.90;;
74421;SDS011;62856;51.446;8.360;2022-10-12T13:16:18;6.82;;;1.63;;
74421;SDS011;62856;51.446;8.360;2022-10-12T13:18:54;9.25;;;1.80;;
74421;SDS011;62856;51.446;8.360;2022-10-12T13:21:22;6.78;;;1.73;;
74421;SDS011;62856;51.446;8.360;2022-10-12T13:23:52;6.13;;;1.80;;
74421;SDS011;62856;51.446;8.360;2022-10-12T13:26:29;7.38;;;1.95;;
74421;SDS011;62856;51.446;8.360;2022-10-12T13:28:56;6.07;;;2.00;;
74421;SDS011;62856;51.446;8.360;2022-10-12T13:31:26;6.55;;;1.80;;
74421;SDS011;62856;51.446;8.360;2022-10-12T13:36:55;7.70;;;2.03;;
74421;SDS011;62856;51.446;8.360;2022-10-12T13:39:24;6.97;;;1.90;;
74421;SDS011;62856;51.446;8.360;2022-10-12T13:41:52;7.13;;;1.85;;
74421;SDS011;62856;51.446;8.360;2022-10-12T13:44:30;8.02;;;1.80;;
74421;SDS011;62856;51.446;8.360;2022-10-12T13:47:01;9.70;;;2.13;;
74421;SDS011;62856;51.446;8.360;2022-10-12T13:49:44;8.00;;;1.92;;
74421;SDS011;62856;51.446;8.360;2022-10-12T13:54:41;7.50;;;2.20;;
74421;SDS011;62856;51.446;8.360;2022-10-12T13:57:17;6.82;;;1.88;;
74421;SDS011;62856;51.446;8.360;2022-10-12T14:00:00;5.95;;;2.00;;
74421;SDS011;62856;51.446;8.360;2022-10-12T14:02:29;6.95;;;1.80;;
74421;SDS011;62856;51.446;8.360;2022-10-12T14:04:56;7.85;;;1.83;;
74421;SDS011;62856;51.446;8.360;2022-10-12T14:10:17;6.00;;;1.40;;
74421;SDS011;62856;51.446;8.360;2022-10-12T14:12:45;6.82;;;1.65;;
74421;SDS011;62856;51.446;8.360;2022-10-12T14:15:14;6.95;;;1.95;;
74421;SDS011;62856;51.446;8.360;2022-10-12T14:17:44;7.18;;;1.73;;
74421;SDS011;62856;51.446;8.360;2022-10-12T14:20:25;9.43;;;2.20;;
74421;SDS011;62856;51.446;8.360;2022-10-12T14:22:53;9.50;;;1.98;;
74421;SDS011;62856;51.446;8.360;2022-10-12T14:25:22;7.32;;;1.80;;
74421;SDS011;62856;51.446;8.360;2022-10-12T14:27:55;9.00;;;1.98;;
74421;SDS011;62856;51.446;8.360;2022-10-12T14:30:23;8.05;;;2.47;;
74421;SDS011;62856;51.446;8.360;2022-10-12T14:32:53;10.98;;;2.38;;
74421;SDS011;62856;51.446;8.360;2022-10-12T14:35:32;6.90;;;1.73;;
74421;SDS011;62856;51.446;8.360;2022-10-12T14:38:23;6.97;;;1.95;;
74421;SDS011;62856;51.446;8.360;2022-10-12T14:46:37;6.18;;;1.80;;
74421;SDS011;62856;51.446;8.360;2022-10-12T14:49:05;7.88;;;1.92;;
74421;SDS011;62856;51.446;8.360;2022-10-12T14:51:31;9.00;;;1.63;;
74421;SDS011;62856;51.446;8.360;2022-10-12T14:54:01;5.57;;;1.42;;
74421;SDS011;62856;51.446;8.360;2022-10-12T14:56:28;7.28;;;1.67;;
74421;SDS011;62856;51.446;8.360;2022-10-12T14:58:54;9.27;;;1.75;;
74421;SDS011;62856;51.446;8.360;2022-10-12T15:01:19;5.40;;;1.70;;
74421;SDS011;62856;51.446;8.360;2022-10-12T15:03:46;10.00;;;1.75;;
74421;SDS011;62856;51.446;8.360;2022-10-12T15:06:14;6.45;;;1.95;;
74421;SDS011;62856;51.446;8.360;2022-10-12T15:08:40;6.63;;;1.90;;
74421;SDS011;62856;51.446;8.360;2022-10-12T15:11:08;6.82;;;1.80;;
74421;SDS011;62856;51.446;8.360;2022-10-12T15:13:35;6.18;;;1.67;;
74421;SDS011;62856;51.446;8.360;2022-10-12T15:16:00;7.65;;;2.00;;
74421;SDS011;62856;51.446;8.360;2022-10-12T15:18:26;9.77;;;2.20;;
74421;SDS011;62856;51.446;8.360;2022-10-12T15:20:52;6.70;;;1.70;;
74421;SDS011;62856;51.446;8.360;2022-10-12T15:23:20;11.00;;;2.10;;
74421;SDS011;62856;51.446;8.360;2022-10-12T15:25:50;8.30;;;2.58;;
74421;SDS011;62856;51.446;8.360;2022-10-12T15:28:20;7.38;;;1.90;;
74421;SDS011;62856;51.446;8.360;2022-10-12T15:30:46;8.02;;;2.13;;
74421;SDS011;62856;51.446;8.360;2022-10-12T15:33:12;9.68;;;2.10;;
74421;SDS011;62856;51.446;8.360;2022-10-12T15:35:38;8.18;;;2.10;;
74421;SDS011;62856;51.446;8.360;2022-10-12T15:38:04;7.93;;;2.40;;
74421;SDS011;62856;51.446;8.360;2022-10-12T15:40:30;10.45;;;2.70;;
74421;SDS011;62856;51.446;8.360;2022-10-12T15:42:57;6.68;;;1.95;;
74421;SDS011;62856;51.446;8.360;2022-10-12T15:45:24;8.48;;;2.83;;
74421;SDS011;62856;51.446;8.360;2022-10-12T15:47:51;8.05;;;2.22;;
74421;SDS011;62856;51.446;8.360;2022-10-12T15:50:19;8.45;;;1.92;;
74421;SDS011;62856;51.446;8.360;2022-10-12T15:52:47;6.45;;;2.13;;
74421;SDS011;62856;51.446;8.360;2022-10-12T15:55:23;6.93;;;1.90;;
74421;SDS011;62856;51.446;8.360;2022-10-12T15:57:50;9.43;;;2.10;;
74421;SDS011;62856;51.446;8.360;2022-10-12T16:00:17;8.82;;;2.28;;
74421;SDS011;62856;51.446;8.360;2022-10-12T16:07:41;7.93;;;1.95;;
74421;SDS011;62856;51.446;8.360;2022-10-12T16:10:06;8.20;;;2.73;;
74421;SDS011;62856;51.446;8.360;2022-10-12T16:14:59;8.77;;;2.67;;
74421;SDS011;62856;51.446;8.360;2022-10-12T16:17:24;7.53;;;2.43;;
74421;SDS011;62856;51.446;8.360;2022-10-12T16:19:49;8.33;;;2.50;;
74421;SDS011;62856;51.446;8.360;2022-10-12T16:22:15;7.40;;;2.93;;
74421;SDS011;62856;51.446;8.360;2022-10-12T16:24:40;8.65;;;2.83;;
74421;SDS011;62856;51.446;8.360;2022-10-12T16:27:05;8.37;;;2.63;;
74421;SDS011;62856;51.446;8.360;2022-10-12T16:29:31;8.10;;;2.55;;
74421;SDS011;62856;51.446;8.360;2022-10-12T16:31:56;8.18;;;2.63;;
74421;SDS011;62856;51.446;8.360;2022-10-12T16:34:21;15.97;;;2.97;;
74421;SDS011;62856;51.446;8.360;2022-10-12T16:36:46;7.80;;;2.70;;
74421;SDS011;62856;51.446;8.360;2022-10-12T16:39:12;9.00;;;3.33;;
74421;SDS011;62856;51.446;8.360;2022-10-12T16:41:37;8.13;;;2.67;;
74421;SDS011;62856;51.446;8.360;2022-10-12T16:44:02;8.17;;;2.70;;
74421;SDS011;62856;51.446;8.360;2022-10-12T16:46:28;9.20;;;2.78;;
74421;SDS011;62856;51.446;8.360;2022-10-12T16:48:54;8.70;;;2.42;;
74421;SDS011;62856;51.446;8.360;2022-10-12T16:51:19;10.82;;;2.70;;
74421;SDS011;62856;51.446;8.360;2022-10-12T16:53:45;8.73;;;2.78;;